sensor_id;sensor_type;location;lat;lon;timestamp;temperature;humidity
44170;DHT22;29836;52.286;9.576;2023-05-15T00:02:06;9.70;99.90
44170;DHT22;29836;52.286;9.576;2023-05-15T00:04:32;9.70;99.90
44170;DHT22;29836;52.286;9.576;2023-05-15T00:06:57;9.70;99.90
44170;DHT22;29836;52.286;9.576;2023-05-15T00:09:23;9.70;99.90
44170;DHT22;29836;52.286;9.576;2023-05-15T00:11:48;9.70;99.90
44170;DHT22;29836;52.286;9.576;2023-05-15T00:14:14;9.70;99.90
44170;DHT22;29836;52.286;9.576;2023-05-15T00:16:40;9.80;99.90
44170;DHT22;29836;52.286;9.576;2023-05-15T00:19:05;9.80;99.90
44170;DHT22;29836;52.286;9.576;2023-05-15T00:21:31;9.80;99.90
44170;DHT22;29836;52.286;9.576;2023-05-15T00:23:57;9.70;99.90
44170;DHT22;29836;52.286;9.576;2023-05-15T00:26:23;9.70;99.90
44170;DHT22;29836;52.286;9.576;2023-05-15T00:28:49;9.60;99.90
44170;DHT22;29836;52.286;9.576;2023-05-15T00:31:15;9.60;99.90
44170;DHT22;29836;52.286;9.576;2023-05-15T00:33:41;9.60;99.90
44170;DHT22;29836;52.286;9.576;2023-05-15T00:36:07;9.50;99.90
44170;DHT22;29836;52.286;9.576;2023-05-15T00:38:33;9.40;99.90
44170;DHT22;29836;52.286;9.576;2023-05-15T00:40:59;9.40;99.90
44170;DHT22;29836;52.286;9.576;2023-05-15T00:43:25;9.40;99.90
44170;DHT22;29836;52.286;9.576;2023-05-15T00:45:52;9.40;99.90
44170;DHT22;29836;52.286;9.576;2023-05-15T00:48:18;9.40;99.90
44170;DHT22;29836;52.286;9.576;2023-05-15T00:50:51;9.40;99.90
44170;DHT22;29836;52.286;9.576;2023-05-15T00:53:17;9.50;99.90
44170;DHT22;29836;52.286;9.576;2023-05-15T00:55:45;9.50;99.90
44170;DHT22;29836;52.286;9.576;2023-05-15T00:58:13;9.50;99.90
44170;DHT22;29836;52.286;9.576;2023-05-15T01:00:39;9.60;99.90
44170;DHT22;29836;52.286;9.576;2023-05-15T01:03:05;9.60;99.90
44170;DHT22;29836;52.286;9.576;2023-05-15T01:05:31;9.60;99.90
44170;DHT22;29836;52.286;9.576;2023-05-15T01:08:20;9.60;99.90
44170;DHT22;29836;52.286;9.576;2023-05-15T01:10:48;9.60;99.90
44170;DHT22;29836;52.286;9.576;2023-05-15T01:13:15;9.60;99.90
44170;DHT22;29836;52.286;9.576;2023-05-15T01:15:43;9.60;99.90
44170;DHT22;29836;52.286;9.576;2023-05-15T01:18:09;9.50;99.90
44170;DHT22;29836;52.286;9.576;2023-05-15T01:21:31;9.30;99.90
44170;DHT22;29836;52.286;9.576;2023-05-15T01:29:00;8.80;99.90
44170;DHT22;29836;52.286;9.576;2023-05-15T01:31:29;8.70;99.90
44170;DHT22;29836;52.286;9.576;2023-05-15T01:33:58;8.60;99.90
44170;DHT22;29836;52.286;9.576;2023-05-15T01:36:41;8.60;99.90
44170;DHT22;29836;52.286;9.576;2023-05-15T01:39:10;8.60;99.90
44170;DHT22;29836;52.286;9.576;2023-05-15T01:41:45;8.70;99.90
44170;DHT22;29836;52.286;9.576;2023-05-15T01:44:29;8.80;99.90
44170;DHT22;29836;52.286;9.576;2023-05-15T01:46:58;8.80;99.90
44170;DHT22;29836;52.286;9.576;2023-05-15T01:49:27;8.80;99.90
44170;DHT22;29836;52.286;9.576;2023-05-15T01:54:50;8.90;99.90
44170;DHT22;29836;52.286;9.576;2023-05-15T01:57:16;9.00;99.90
44170;DHT22;29836;52.286;9.576;2023-05-15T01:59:43;9.00;99.90
44170;DHT22;29836;52.286;9.576;2023-05-15T02:02:10;9.00;99.90
44170;DHT22;29836;52.286;9.576;2023-05-15T02:04:38;9.00;99.90
44170;DHT22;29836;52.286;9.576;2023-05-15T02:07:05;9.00;99.90
44170;DHT22;29836;52.286;9.576;2023-05-15T02:09:31;9.00;99.90
44170;DHT22;29836;52.286;9.576;2023-05-15T02:12:00;8.90;99.90
44170;DHT22;29836;52.286;9.576;2023-05-15T02:14:27;9.00;99.90
44170;DHT22;29836;52.286;9.576;2023-05-15T02:16:53;8.90;99.90
44170;DHT22;29836;52.286;9.576;2023-05-15T02:19:19;8.90;99.90
44170;DHT22;29836;52.286;9.576;2023-05-15T02:21:44;8.80;99.90
44170;DHT22;29836;52.286;9.576;2023-05-15T02:24:10;8.70;99.90
44170;DHT22;29836;52.286;9.576;2023-05-15T02:35:41;8.60;99.90
44170;DHT22;29836;52.286;9.576;2023-05-15T02:38:10;8.50;99.90
44170;DHT22;29836;52.286;9.576;2023-05-15T02:40:38;8.50;99.90
44170;DHT22;29836;52.286;9.576;2023-05-15T02:43:05;8.40;99.90
44170;DHT22;29836;52.286;9.576;2023-05-15T02:45:33;8.40;99.90
44170;DHT22;29836;52.286;9.576;2023-05-15T02:47:58;8.40;99.90
44170;DHT22;29836;52.286;9.576;2023-05-15T02:50:25;8.40;99.90
44170;DHT22;29836;52.286;9.576;2023-05-15T02:52:50;8.40;99.90
44170;DHT22;29836;52.286;9.576;2023-05-15T02:55:16;8.40;99.90
44170;DHT22;29836;52.286;9.576;2023-05-15T02:57:41;8.40;99.90
44170;DHT22;29836;52.286;9.576;2023-05-15T03:00:07;8.40;99.90
44170;DHT22;29836;52.286;9.576;2023-05-15T03:02:36;8.50;99.90
44170;DHT22;29836;52.286;9.576;2023-05-15T03:05:02;8.60;99.90
44170;DHT22;29836;52.286;9.576;2023-05-15T03:07:27;8.60;99.90
44170;DHT22;29836;52.286;9.576;2023-05-15T03:09:53;8.60;99.90
44170;DHT22;29836;52.286;9.576;2023-05-15T03:12:18;8.60;99.90
44170;DHT22;29836;52.286;9.576;2023-05-15T03:14:44;8.60;99.90
44170;DHT22;29836;52.286;9.576;2023-05-15T03:17:09;8.60;99.90
44170;DHT22;29836;52.286;9.576;2023-05-15T03:19:35;8.50;99.90
44170;DHT22;29836;52.286;9.576;2023-05-15T03:22:00;8.50;99.90
44170;DHT22;29836;52.286;9.576;2023-05-15T03:24:26;8.50;99.90
44170;DHT22;29836;52.286;9.576;2023-05-15T03:26:51;8.50;99.90
44170;DHT22;29836;52.286;9.576;2023-05-15T03:29:17;8.40;99.90
44170;DHT22;29836;52.286;9.576;2023-05-15T03:31:43;8.50;99.90
44170;DHT22;29836;52.286;9.576;2023-05-15T03:34:08;8.50;99.90
44170;DHT22;29836;52.286;9.576;2023-05-15T03:36:34;8.50;99.90
44170;DHT22;29836;52.286;9.576;2023-05-15T03:38:59;8.50;99.90
44170;DHT22;29836;52.286;9.576;2023-05-15T03:41:25;8.60;99.90
44170;DHT22;29836;52.286;9.576;2023-05-15T03:43:52;8.60;99.90
44170;DHT22;29836;52.286;9.576;2023-05-15T03:46:17;8.70;99.90
44170;DHT22;29836;52.286;9.576;2023-05-15T03:48:43;8.80;99.90
44170;DHT22;29836;52.286;9.576;2023-05-15T03:51:08;9.00;99.90
44170;DHT22;29836;52.286;9.576;2023-05-15T03:53:34;9.10;99.90
44170;DHT22;29836;52.286;9.576;2023-05-15T03:55:59;9.20;99.90
44170;DHT22;29836;52.286;9.576;2023-05-15T03:58:25;9.30;99.90
44170;DHT22;29836;52.286;9.576;2023-05-15T04:00:50;9.50;99.90
44170;DHT22;29836;52.286;9.576;2023-05-15T04:03:16;9.60;99.90
44170;DHT22;29836;52.286;9.576;2023-05-15T04:05:43;9.70;99.90
44170;DHT22;29836;52.286;9.576;2023-05-15T04:08:08;9.80;99.90
44170;DHT22;29836;52.286;9.576;2023-05-15T04:10:35;9.80;99.90
44170;DHT22;29836;52.286;9.576;2023-05-15T04:13:00;9.80;99.90
44170;DHT22;29836;52.286;9.576;2023-05-15T04:15:26;9.70;99.90
44170;DHT22;29836;52.286;9.576;2023-05-15T04:17:53;9.70;99.90
44170;DHT22;29836;52.286;9.576;2023-05-15T04:20:21;9.70;99.90
44170;DHT22;29836;52.286;9.576;2023-05-15T04:22:47;9.60;99.90
44170;DHT22;29836;52.286;9.576;2023-05-15T04:25:13;9.60;99.90
44170;DHT22;29836;52.286;9.576;2023-05-15T04:27:39;9.60;99.90
44170;DHT22;29836;52.286;9.576;2023-05-15T04:30:06;9.60;99.90
44170;DHT22;29836;52.286;9.576;2023-05-15T04:32:32;9.60;99.90
44170;DHT22;29836;52.286;9.576;2023-05-15T04:34:59;9.60;99.90
44170;DHT22;29836;52.286;9.576;2023-05-15T04:37:25;9.60;99.90
44170;DHT22;29836;52.286;9.576;2023-05-15T04:39:51;9.70;99.90
44170;DHT22;29836;52.286;9.576;2023-05-15T04:42:16;9.70;99.90
44170;DHT22;29836;52.286;9.576;2023-05-15T04:44:42;9.80;99.90
44170;DHT22;29836;52.286;9.576;2023-05-15T04:47:09;9.80;99.90
44170;DHT22;29836;52.286;9.576;2023-05-15T04:49:35;9.90;99.90
44170;DHT22;29836;52.286;9.576;2023-05-15T04:52:01;9.90;99.90
44170;DHT22;29836;52.286;9.576;2023-05-15T04:54:26;10.00;99.90
44170;DHT22;29836;52.286;9.576;2023-05-15T04:56:52;10.10;99.90
44170;DHT22;29836;52.286;9.576;2023-05-15T04:59:18;10.20;99.90
44170;DHT22;29836;52.286;9.576;2023-05-15T05:01:44;10.30;99.90
44170;DHT22;29836;52.286;9.576;2023-05-15T05:04:09;10.40;99.90
44170;DHT22;29836;52.286;9.576;2023-05-15T05:06:35;10.40;99.90
44170;DHT22;29836;52.286;9.576;2023-05-15T05:09:00;10.50;99.90
44170;DHT22;29836;52.286;9.576;2023-05-15T05:11:26;10.50;99.90
44170;DHT22;29836;52.286;9.576;2023-05-15T05:13:51;10.60;99.90
44170;DHT22;29836;52.286;9.576;2023-05-15T05:16:17;10.60;99.90
44170;DHT22;29836;52.286;9.576;2023-05-15T05:18:42;10.70;99.90
44170;DHT22;29836;52.286;9.576;2023-05-15T05:21:08;10.60;99.90
44170;DHT22;29836;52.286;9.576;2023-05-15T05:23:34;10.70;99.90
44170;DHT22;29836;52.286;9.576;2023-05-15T05:25:59;10.70;99.90
44170;DHT22;29836;52.286;9.576;2023-05-15T05:28:25;10.80;99.90
44170;DHT22;29836;52.286;9.576;2023-05-15T05:30:51;10.90;99.90
44170;DHT22;29836;52.286;9.576;2023-05-15T05:33:16;10.90;99.90
44170;DHT22;29836;52.286;9.576;2023-05-15T05:35:42;10.90;99.90
44170;DHT22;29836;52.286;9.576;2023-05-15T05:38:08;11.00;99.90
44170;DHT22;29836;52.286;9.576;2023-05-15T05:40:33;11.00;99.90
44170;DHT22;29836;52.286;9.576;2023-05-15T05:43:02;11.10;99.90
44170;DHT22;29836;52.286;9.576;2023-05-15T05:45:28;11.20;99.90
44170;DHT22;29836;52.286;9.576;2023-05-15T05:47:57;11.40;99.90
44170;DHT22;29836;52.286;9.576;2023-05-15T05:50:23;11.50;99.90
44170;DHT22;29836;52.286;9.576;2023-05-15T05:52:49;11.60;99.90
44170;DHT22;29836;52.286;9.576;2023-05-15T05:55:15;11.60;99.90
44170;DHT22;29836;52.286;9.576;2023-05-15T05:57:40;11.70;99.90
44170;DHT22;29836;52.286;9.576;2023-05-15T06:00:06;11.80;99.90
44170;DHT22;29836;52.286;9.576;2023-05-15T06:02:35;11.90;99.90
44170;DHT22;29836;52.286;9.576;2023-05-15T06:05:01;12.00;99.90
44170;DHT22;29836;52.286;9.576;2023-05-15T06:07:27;12.20;99.90
44170;DHT22;29836;52.286;9.576;2023-05-15T06:09:52;12.30;99.90
44170;DHT22;29836;52.286;9.576;2023-05-15T06:12:18;12.30;99.90
44170;DHT22;29836;52.286;9.576;2023-05-15T06:14:43;12.40;99.90
44170;DHT22;29836;52.286;9.576;2023-05-15T06:17:09;12.60;99.90
44170;DHT22;29836;52.286;9.576;2023-05-15T06:19:34;12.60;99.90
44170;DHT22;29836;52.286;9.576;2023-05-15T06:22:00;12.70;99.90
44170;DHT22;29836;52.286;9.576;2023-05-15T06:24:25;12.80;99.90
44170;DHT22;29836;52.286;9.576;2023-05-15T06:26:51;13.00;99.90
44170;DHT22;29836;52.286;9.576;2023-05-15T06:29:17;13.00;99.90
44170;DHT22;29836;52.286;9.576;2023-05-15T06:31:42;13.00;99.90
44170;DHT22;29836;52.286;9.576;2023-05-15T06:34:08;13.30;99.90
44170;DHT22;29836;52.286;9.576;2023-05-15T06:36:34;13.40;99.90
44170;DHT22;29836;52.286;9.576;2023-05-15T06:38:59;13.60;99.90
44170;DHT22;29836;52.286;9.576;2023-05-15T06:41:25;13.80;99.90
44170;DHT22;29836;52.286;9.576;2023-05-15T06:43:50;14.00;99.90
44170;DHT22;29836;52.286;9.576;2023-05-15T06:46:16;14.20;99.90
44170;DHT22;29836;52.286;9.576;2023-05-15T06:48:43;14.20;99.90
44170;DHT22;29836;52.286;9.576;2023-05-15T06:51:09;14.30;99.90
44170;DHT22;29836;52.286;9.576;2023-05-15T06:53:35;14.30;99.90
44170;DHT22;29836;52.286;9.576;2023-05-15T06:56:00;14.40;99.90
44170;DHT22;29836;52.286;9.576;2023-05-15T06:58:26;14.50;99.90
44170;DHT22;29836;52.286;9.576;2023-05-15T07:00:51;14.50;99.90
44170;DHT22;29836;52.286;9.576;2023-05-15T07:03:17;14.60;99.90
44170;DHT22;29836;52.286;9.576;2023-05-15T07:05:43;14.80;99.90
44170;DHT22;29836;52.286;9.576;2023-05-15T07:08:09;14.80;99.90
44170;DHT22;29836;52.286;9.576;2023-05-15T07:10:34;15.00;99.90
44170;DHT22;29836;52.286;9.576;2023-05-15T07:13:00;15.20;99.90
44170;DHT22;29836;52.286;9.576;2023-05-15T07:15:26;15.40;99.90
44170;DHT22;29836;52.286;9.576;2023-05-15T07:17:51;15.50;99.90
44170;DHT22;29836;52.286;9.576;2023-05-15T07:20:17;15.40;99.90
44170;DHT22;29836;52.286;9.576;2023-05-15T07:22:42;15.50;99.90
44170;DHT22;29836;52.286;9.576;2023-05-15T07:25:08;15.70;99.90
44170;DHT22;29836;52.286;9.576;2023-05-15T07:27:34;16.00;99.90
44170;DHT22;29836;52.286;9.576;2023-05-15T07:30:01;16.10;99.90
44170;DHT22;29836;52.286;9.576;2023-05-15T07:32:28;16.20;99.90
44170;DHT22;29836;52.286;9.576;2023-05-15T07:34:54;16.10;99.90
44170;DHT22;29836;52.286;9.576;2023-05-15T07:37:20;16.30;99.90
44170;DHT22;29836;52.286;9.576;2023-05-15T07:39:46;16.40;99.90
44170;DHT22;29836;52.286;9.576;2023-05-15T07:42:11;16.40;99.90
44170;DHT22;29836;52.286;9.576;2023-05-15T07:44:37;16.60;99.90
44170;DHT22;29836;52.286;9.576;2023-05-15T07:47:02;16.60;99.90
44170;DHT22;29836;52.286;9.576;2023-05-15T07:49:28;16.40;99.90
44170;DHT22;29836;52.286;9.576;2023-05-15T07:51:53;16.60;99.90
44170;DHT22;29836;52.286;9.576;2023-05-15T07:54:19;16.80;99.90
44170;DHT22;29836;52.286;9.576;2023-05-15T07:56:45;16.80;99.90
44170;DHT22;29836;52.286;9.576;2023-05-15T07:59:10;16.90;99.90
44170;DHT22;29836;52.286;9.576;2023-05-15T08:01:36;16.90;99.90
44170;DHT22;29836;52.286;9.576;2023-05-15T08:04:05;17.00;99.90
44170;DHT22;29836;52.286;9.576;2023-05-15T08:06:31;17.20;99.90
44170;DHT22;29836;52.286;9.576;2023-05-15T08:08:57;17.30;99.90
44170;DHT22;29836;52.286;9.576;2023-05-15T08:11:22;17.50;99.90
44170;DHT22;29836;52.286;9.576;2023-05-15T08:13:48;17.70;99.90
44170;DHT22;29836;52.286;9.576;2023-05-15T08:16:13;17.90;99.90
44170;DHT22;29836;52.286;9.576;2023-05-15T08:18:39;18.10;99.50
44170;DHT22;29836;52.286;9.576;2023-05-15T08:21:05;18.00;99.90
44170;DHT22;29836;52.286;9.576;2023-05-15T08:23:30;18.00;99.30
44170;DHT22;29836;52.286;9.576;2023-05-15T08:25:56;17.90;99.40
44170;DHT22;29836;52.286;9.576;2023-05-15T08:28:21;18.10;99.50
44170;DHT22;29836;52.286;9.576;2023-05-15T08:30:47;18.20;99.80
44170;DHT22;29836;52.286;9.576;2023-05-15T08:33:13;18.30;99.90
44170;DHT22;29836;52.286;9.576;2023-05-15T08:35:38;18.80;99.60
44170;DHT22;29836;52.286;9.576;2023-05-15T08:38:04;18.90;98.50
44170;DHT22;29836;52.286;9.576;2023-05-15T08:40:29;19.00;97.90
44170;DHT22;29836;52.286;9.576;2023-05-15T08:43:00;19.30;96.50
44170;DHT22;29836;52.286;9.576;2023-05-15T08:45:27;19.20;96.70
44170;DHT22;29836;52.286;9.576;2023-05-15T08:47:52;19.30;96.60
44170;DHT22;29836;52.286;9.576;2023-05-15T08:50:18;19.50;96.40
44170;DHT22;29836;52.286;9.576;2023-05-15T08:52:46;19.60;95.60
44170;DHT22;29836;52.286;9.576;2023-05-15T08:55:15;19.90;95.30
44170;DHT22;29836;52.286;9.576;2023-05-15T08:57:42;20.30;95.10
44170;DHT22;29836;52.286;9.576;2023-05-15T09:00:08;21.00;94.60
44170;DHT22;29836;52.286;9.576;2023-05-15T09:02:36;21.80;92.90
44170;DHT22;29836;52.286;9.576;2023-05-15T09:05:03;22.30;91.30
44170;DHT22;29836;52.286;9.576;2023-05-15T09:07:29;22.20;90.50
44170;DHT22;29836;52.286;9.576;2023-05-15T09:09:56;21.30;91.40
44170;DHT22;29836;52.286;9.576;2023-05-15T09:12:23;21.30;91.30
44170;DHT22;29836;52.286;9.576;2023-05-15T09:14:49;22.50;90.30
44170;DHT22;29836;52.286;9.576;2023-05-15T09:17:15;24.00;87.10
44170;DHT22;29836;52.286;9.576;2023-05-15T09:19:41;24.70;84.00
44170;DHT22;29836;52.286;9.576;2023-05-15T09:22:15;25.30;81.40
44170;DHT22;29836;52.286;9.576;2023-05-15T09:24:42;26.00;77.20
44170;DHT22;29836;52.286;9.576;2023-05-15T09:27:08;25.70;73.70
44170;DHT22;29836;52.286;9.576;2023-05-15T09:29:37;25.80;71.70
44170;DHT22;29836;52.286;9.576;2023-05-15T09:32:05;25.30;71.80
44170;DHT22;29836;52.286;9.576;2023-05-15T09:34:36;25.80;72.80
44170;DHT22;29836;52.286;9.576;2023-05-15T09:37:03;26.80;71.50
44170;DHT22;29836;52.286;9.576;2023-05-15T09:39:30;26.60;69.80
44170;DHT22;29836;52.286;9.576;2023-05-15T09:42:06;27.00;70.40
44170;DHT22;29836;52.286;9.576;2023-05-15T09:44:32;27.50;69.00
44170;DHT22;29836;52.286;9.576;2023-05-15T09:46:58;27.20;68.50
44170;DHT22;29836;52.286;9.576;2023-05-15T09:49:26;26.70;68.70
44170;DHT22;29836;52.286;9.576;2023-05-15T09:51:51;25.80;71.30
44170;DHT22;29836;52.286;9.576;2023-05-15T09:54:22;24.50;73.30
44170;DHT22;29836;52.286;9.576;2023-05-15T09:56:47;24.40;74.50
44170;DHT22;29836;52.286;9.576;2023-05-15T09:59:14;23.80;74.30
44170;DHT22;29836;52.286;9.576;2023-05-15T10:01:42;23.20;75.10
44170;DHT22;29836;52.286;9.576;2023-05-15T10:04:09;23.80;74.20
44170;DHT22;29836;52.286;9.576;2023-05-15T10:06:36;25.10;73.20
44170;DHT22;29836;52.286;9.576;2023-05-15T10:09:03;26.50;68.80
44170;DHT22;29836;52.286;9.576;2023-05-15T10:11:29;27.10;68.10
44170;DHT22;29836;52.286;9.576;2023-05-15T10:13:58;27.80;66.20
44170;DHT22;29836;52.286;9.576;2023-05-15T10:16:24;28.70;65.50
44170;DHT22;29836;52.286;9.576;2023-05-15T10:18:51;29.00;62.60
44170;DHT22;29836;52.286;9.576;2023-05-15T10:21:19;28.70;64.80
44170;DHT22;29836;52.286;9.576;2023-05-15T10:23:44;28.50;60.40
44170;DHT22;29836;52.286;9.576;2023-05-15T10:26:20;28.60;60.10
44170;DHT22;29836;52.286;9.576;2023-05-15T10:28:47;29.00;59.30
44170;DHT22;29836;52.286;9.576;2023-05-15T10:31:15;28.30;58.90
44170;DHT22;29836;52.286;9.576;2023-05-15T10:33:42;28.80;58.00
44170;DHT22;29836;52.286;9.576;2023-05-15T10:36:08;29.10;56.20
44170;DHT22;29836;52.286;9.576;2023-05-15T10:38:35;29.40;56.90
44170;DHT22;29836;52.286;9.576;2023-05-15T10:41:01;29.00;55.20
44170;DHT22;29836;52.286;9.576;2023-05-15T10:43:29;28.30;56.50
44170;DHT22;29836;52.286;9.576;2023-05-15T10:45:55;28.60;55.40
44170;DHT22;29836;52.286;9.576;2023-05-15T10:48:22;28.60;55.30
44170;DHT22;29836;52.286;9.576;2023-05-15T10:50:48;28.70;56.30
44170;DHT22;29836;52.286;9.576;2023-05-15T10:53:14;28.10;54.70
44170;DHT22;29836;52.286;9.576;2023-05-15T10:55:40;27.80;55.20
44170;DHT22;29836;52.286;9.576;2023-05-15T10:58:09;27.90;55.90
44170;DHT22;29836;52.286;9.576;2023-05-15T11:00:41;28.60;56.60
44170;DHT22;29836;52.286;9.576;2023-05-15T11:03:07;29.60;54.50
44170;DHT22;29836;52.286;9.576;2023-05-15T11:06:07;29.90;54.20
44170;DHT22;29836;52.286;9.576;2023-05-15T11:08:38;29.90;53.20
44170;DHT22;29836;52.286;9.576;2023-05-15T11:11:04;30.20;52.80
44170;DHT22;29836;52.286;9.576;2023-05-15T11:22:18;29.10;53.60
44170;DHT22;29836;52.286;9.576;2023-05-15T11:27:24;28.90;54.90
44170;DHT22;29836;52.286;9.576;2023-05-15T11:30:06;27.90;57.50
44170;DHT22;29836;52.286;9.576;2023-05-15T11:32:48;26.90;59.50
44170;DHT22;29836;52.286;9.576;2023-05-15T11:35:24;26.00;61.60
44170;DHT22;29836;52.286;9.576;2023-05-15T11:37:53;25.40;63.10
44170;DHT22;29836;52.286;9.576;2023-05-15T11:40:25;24.90;64.60
44170;DHT22;29836;52.286;9.576;2023-05-15T11:43:15;24.70;65.60
44170;DHT22;29836;52.286;9.576;2023-05-15T11:45:42;24.00;66.00
44170;DHT22;29836;52.286;9.576;2023-05-15T11:48:12;23.70;67.60
44170;DHT22;29836;52.286;9.576;2023-05-15T11:50:41;23.50;67.50
44170;DHT22;29836;52.286;9.576;2023-05-15T11:53:08;23.40;66.80
44170;DHT22;29836;52.286;9.576;2023-05-15T11:55:39;23.30;68.00
44170;DHT22;29836;52.286;9.576;2023-05-15T11:58:09;23.80;67.80
44170;DHT22;29836;52.286;9.576;2023-05-15T12:00:35;24.00;65.60
44170;DHT22;29836;52.286;9.576;2023-05-15T12:03:01;23.80;66.90
44170;DHT22;29836;52.286;9.576;2023-05-15T12:05:28;23.80;67.70
44170;DHT22;29836;52.286;9.576;2023-05-15T12:07:55;23.60;67.70
44170;DHT22;29836;52.286;9.576;2023-05-15T12:10:20;23.50;67.50
44170;DHT22;29836;52.286;9.576;2023-05-15T12:12:46;23.20;67.20
44170;DHT22;29836;52.286;9.576;2023-05-15T12:15:15;23.30;69.40
44170;DHT22;29836;52.286;9.576;2023-05-15T12:17:42;23.90;66.30
44170;DHT22;29836;52.286;9.576;2023-05-15T12:20:17;23.50;67.50
44170;DHT22;29836;52.286;9.576;2023-05-15T12:22:43;23.60;68.80
44170;DHT22;29836;52.286;9.576;2023-05-15T12:25:10;23.30;66.70
44170;DHT22;29836;52.286;9.576;2023-05-15T12:27:37;23.20;67.70
44170;DHT22;29836;52.286;9.576;2023-05-15T12:30:03;23.10;66.70
44170;DHT22;29836;52.286;9.576;2023-05-15T12:32:31;23.10;67.10
44170;DHT22;29836;52.286;9.576;2023-05-15T12:34:58;22.90;68.20
44170;DHT22;29836;52.286;9.576;2023-05-15T12:37:24;22.80;67.60
44170;DHT22;29836;52.286;9.576;2023-05-15T12:39:56;22.80;67.50
44170;DHT22;29836;52.286;9.576;2023-05-15T12:42:24;22.80;66.70
44170;DHT22;29836;52.286;9.576;2023-05-15T12:44:51;23.10;67.40
44170;DHT22;29836;52.286;9.576;2023-05-15T12:47:26;23.30;66.60
44170;DHT22;29836;52.286;9.576;2023-05-15T12:49:56;23.30;65.30
44170;DHT22;29836;52.286;9.576;2023-05-15T12:52:21;23.20;64.50
44170;DHT22;29836;52.286;9.576;2023-05-15T12:54:47;23.00;64.90
44170;DHT22;29836;52.286;9.576;2023-05-15T12:57:13;23.10;65.90
44170;DHT22;29836;52.286;9.576;2023-05-15T12:59:39;23.30;64.40
44170;DHT22;29836;52.286;9.576;2023-05-15T13:02:12;23.40;62.80
44170;DHT22;29836;52.286;9.576;2023-05-15T13:04:38;23.30;64.10
44170;DHT22;29836;52.286;9.576;2023-05-15T13:07:04;23.60;64.70
44170;DHT22;29836;52.286;9.576;2023-05-15T13:09:29;23.50;63.70
44170;DHT22;29836;52.286;9.576;2023-05-15T13:11:55;23.30;63.80
44170;DHT22;29836;52.286;9.576;2023-05-15T13:14:21;23.80;64.80
44170;DHT22;29836;52.286;9.576;2023-05-15T13:16:51;24.50;64.00
44170;DHT22;29836;52.286;9.576;2023-05-15T13:19:17;25.30;62.30
44170;DHT22;29836;52.286;9.576;2023-05-15T13:21:43;25.30;63.00
44170;DHT22;29836;52.286;9.576;2023-05-15T13:24:10;25.60;59.60
44170;DHT22;29836;52.286;9.576;2023-05-15T13:26:35;25.40;60.20
44170;DHT22;29836;52.286;9.576;2023-05-15T13:29:01;24.50;62.20
44170;DHT22;29836;52.286;9.576;2023-05-15T13:31:27;23.70;63.70
44170;DHT22;29836;52.286;9.576;2023-05-15T13:33:52;23.40;64.40
44170;DHT22;29836;52.286;9.576;2023-05-15T13:36:18;23.40;65.60
44170;DHT22;29836;52.286;9.576;2023-05-15T13:38:43;23.70;66.20
44170;DHT22;29836;52.286;9.576;2023-05-15T13:41:09;23.50;64.50
44170;DHT22;29836;52.286;9.576;2023-05-15T13:43:34;24.00;64.80
44170;DHT22;29836;52.286;9.576;2023-05-15T13:46:00;24.90;65.50
44170;DHT22;29836;52.286;9.576;2023-05-15T13:48:25;24.90;59.00
44170;DHT22;29836;52.286;9.576;2023-05-15T13:50:51;24.90;58.20
44170;DHT22;29836;52.286;9.576;2023-05-15T13:53:16;25.00;57.60
44170;DHT22;29836;52.286;9.576;2023-05-15T13:55:45;25.10;54.90
44170;DHT22;29836;52.286;9.576;2023-05-15T13:58:11;25.20;55.50
44170;DHT22;29836;52.286;9.576;2023-05-15T14:00:38;24.70;57.60
44170;DHT22;29836;52.286;9.576;2023-05-15T14:03:04;23.90;59.70
44170;DHT22;29836;52.286;9.576;2023-05-15T14:05:30;23.60;62.50
44170;DHT22;29836;52.286;9.576;2023-05-15T14:07:56;23.20;64.10
44170;DHT22;29836;52.286;9.576;2023-05-15T14:10:22;23.20;63.60
44170;DHT22;29836;52.286;9.576;2023-05-15T14:12:48;22.80;65.10
44170;DHT22;29836;52.286;9.576;2023-05-15T14:15:14;22.50;67.40
44170;DHT22;29836;52.286;9.576;2023-05-15T14:17:40;22.10;68.40
44170;DHT22;29836;52.286;9.576;2023-05-15T14:20:06;21.90;68.10
44170;DHT22;29836;52.286;9.576;2023-05-15T14:22:34;21.90;67.90
44170;DHT22;29836;52.286;9.576;2023-05-15T14:25:00;22.10;66.50
44170;DHT22;29836;52.286;9.576;2023-05-15T14:27:26;21.90;66.30
44170;DHT22;29836;52.286;9.576;2023-05-15T14:29:51;21.60;67.50
44170;DHT22;29836;52.286;9.576;2023-05-15T14:32:17;21.20;67.10
44170;DHT22;29836;52.286;9.576;2023-05-15T14:34:43;20.70;69.10
44170;DHT22;29836;52.286;9.576;2023-05-15T14:37:08;20.50;70.70
44170;DHT22;29836;52.286;9.576;2023-05-15T14:39:34;20.30;71.40
44170;DHT22;29836;52.286;9.576;2023-05-15T14:42:00;20.10;71.10
44170;DHT22;29836;52.286;9.576;2023-05-15T14:44:25;20.10;71.90
44170;DHT22;29836;52.286;9.576;2023-05-15T14:47:07;20.10;69.30
44170;DHT22;29836;52.286;9.576;2023-05-15T14:49:33;19.90;70.30
44170;DHT22;29836;52.286;9.576;2023-05-15T14:51:59;19.80;72.20
44170;DHT22;29836;52.286;9.576;2023-05-15T14:54:24;19.80;71.90
44170;DHT22;29836;52.286;9.576;2023-05-15T14:56:50;19.60;71.90
44170;DHT22;29836;52.286;9.576;2023-05-15T14:59:15;19.70;71.80
44170;DHT22;29836;52.286;9.576;2023-05-15T15:01:41;19.70;72.70
44170;DHT22;29836;52.286;9.576;2023-05-15T15:04:06;19.80;72.00
44170;DHT22;29836;52.286;9.576;2023-05-15T15:06:32;19.80;72.60
44170;DHT22;29836;52.286;9.576;2023-05-15T15:08:57;19.80;72.10
44170;DHT22;29836;52.286;9.576;2023-05-15T15:11:23;19.70;72.50
44170;DHT22;29836;52.286;9.576;2023-05-15T15:13:48;19.60;73.40
44170;DHT22;29836;52.286;9.576;2023-05-15T15:16:14;19.60;73.90
44170;DHT22;29836;52.286;9.576;2023-05-15T15:18:40;19.40;75.70
44170;DHT22;29836;52.286;9.576;2023-05-15T15:21:05;19.20;75.60
44170;DHT22;29836;52.286;9.576;2023-05-15T15:23:31;19.10;76.00
44170;DHT22;29836;52.286;9.576;2023-05-15T15:25:56;19.00;77.40
44170;DHT22;29836;52.286;9.576;2023-05-15T15:28:22;18.90;79.70
44170;DHT22;29836;52.286;9.576;2023-05-15T15:30:47;18.80;81.20
44170;DHT22;29836;52.286;9.576;2023-05-15T15:33:13;18.60;82.70
44170;DHT22;29836;52.286;9.576;2023-05-15T15:35:38;18.50;84.40
44170;DHT22;29836;52.286;9.576;2023-05-15T15:38:04;18.40;85.20
44170;DHT22;29836;52.286;9.576;2023-05-15T15:40:30;18.10;88.70
44170;DHT22;29836;52.286;9.576;2023-05-15T15:42:56;17.80;91.00
44170;DHT22;29836;52.286;9.576;2023-05-15T15:45:21;17.40;93.20
44170;DHT22;29836;52.286;9.576;2023-05-15T15:47:47;17.00;92.50
44170;DHT22;29836;52.286;9.576;2023-05-15T15:50:13;16.60;93.20
44170;DHT22;29836;52.286;9.576;2023-05-15T15:52:38;16.40;93.80
44170;DHT22;29836;52.286;9.576;2023-05-15T15:55:04;16.20;94.20
44170;DHT22;29836;52.286;9.576;2023-05-15T15:57:31;16.00;92.90
44170;DHT22;29836;52.286;9.576;2023-05-15T15:59:57;15.90;91.90
44170;DHT22;29836;52.286;9.576;2023-05-15T16:02:22;15.90;92.20